Time;durP1;ratioP1;P1;durP2;ratioP2;P2;SDS_P1;SDS_P2;PMS_P1;PMS_P2;Temp;Humidity;BMP_temperature;BMP_pressure;BME280_temperature;BME280_humidity;BME280_pressure;Samples;Min_cycle;Max_cycle;Signal;HPM_P1;HPM_P2
2023/02/28 00:00:37;;;;;;;1999.90;999.90;;;0.10;99.90;;;;;;6745667;88;20184;-76
2023/02/28 00:10:38;;;;;;;1999.90;999.90;;;0.10;99.90;;;;;;6755437;87;20386;-76
2023/02/28 00:20:39;;;;;;;1999.90;999.90;;;0.10;99.90;;;;;;6745568;87;20205;-76
2023/02/28 00:30:39;;;;;;;1999.90;999.90;;;-0.20;99.90;;;;;;6742325;88;20202;-75
2023/02/28 00:40:40;;;;;;;1999.90;999.90;;;-0.30;99.90;;;;;;6743801;87;20204;-76
2023/02/28 00:50:40;;;;;;;1999.90;999.90;;;-0.30;99.90;;;;;;6747139;87;20247;-75
2023/02/28 01:00:41;;;;;;;1999.90;999.90;;;-0.40;99.90;;;;;;6749210;87;20231;-76
2023/02/28 01:10:42;;;;;;;1999.90;999.90;;;-0.30;99.90;;;;;;6741025;87;20187;-76
2023/02/28 01:20:42;;;;;;;1999.90;999.90;;;-0.60;99.90;;;;;;6749821;87;20285;-76
2023/02/28 01:30:47;;;;;;;1999.90;999.90;;;-0.50;99.90;;;;;;6743365;88;20311;-76
2023/02/28 01:40:48;;;;;;;1999.90;999.90;;;-0.50;99.90;;;;;;6748513;87;20592;-76
2023/02/28 01:50:49;;;;;;;1999.90;999.90;;;-0.30;99.90;;;;;;6745239;88;20244;-76
2023/02/28 02:00:50;;;;;;;1999.90;999.90;;;-0.40;99.90;;;;;;6748337;88;20731;-76
2023/02/28 02:10:58;;;;;;;1999.90;999.90;;;-0.40;99.90;;;;;;6747059;87;20289;-76
2023/02/28 02:21:24;;;;;;;1999.90;999.90;;;-0.60;99.90;;;;;;6743222;87;20593;-76
2023/02/28 02:31:43;;;;;;;1999.90;999.90;;;-0.90;99.90;;;;;;6748576;87;20284;-76
2023/02/28 02:42:11;;;;;;;1999.90;999.90;;;-0.90;99.90;;;;;;6702114;77;20212;-78
2023/02/28 02:52:15;;;;;;;1999.90;999.90;;;-1.10;99.90;;;;;;6723242;88;20672;-78
2023/02/28 03:02:17;;;;;;;1999.90;999.90;;;-1.20;99.90;;;;;;6725301;88;20205;-77
2023/02/28 03:12:18;;;;;;;1999.90;999.90;;;-1.20;99.90;;;;;;6719739;88;20931;-77
2023/02/28 03:22:37;;;;;;;1999.90;999.90;;;-1.20;99.90;;;;;;6724541;88;20220;-77
2023/02/28 03:33:05;;;;;;;1999.90;999.90;;;-1.30;99.90;;;;;;6720459;88;20172;-77
2023/02/28 03:43:12;;;;;;;1999.90;999.90;;;-1.30;99.90;;;;;;6720363;88;20710;-76
2023/02/28 03:53:24;;;;;;;1999.90;999.90;;;-1.40;99.90;;;;;;6720429;88;20327;-77
2023/02/28 04:03:25;;;;;;;1999.90;999.90;;;-1.40;99.90;;;;;;6703003;88;20190;-78
2023/02/28 04:13:26;;;;;;;1999.90;999.90;;;-1.60;99.90;;;;;;6703970;88;20211;-79
2023/02/28 04:23:26;;;;;;;1999.90;999.90;;;-1.70;99.90;;;;;;6703910;88;20652;-78
2023/02/28 04:33:27;;;;;;;1999.90;999.90;;;-1.80;99.90;;;;;;6701217;88;20316;-77
2023/02/28 04:43:28;;;;;;;1999.90;999.90;;;-1.70;99.90;;;;;;6703172;88;20189;-77
2023/02/28 04:53:29;;;;;;;1999.90;999.90;;;-1.80;99.90;;;;;;6703451;88;20712;-78
2023/02/28 05:03:29;;;;;;;1999.90;999.90;;;-1.90;99.90;;;;;;6702991;88;20226;-77
2023/02/28 05:13:30;;;;;;;1999.90;999.90;;;-2.00;99.90;;;;;;6712271;88;20712;-77
2023/02/28 05:23:31;;;;;;;1999.90;999.90;;;-1.80;99.90;;;;;;6720140;88;20328;-78
2023/02/28 05:33:31;;;;;;;1999.90;999.90;;;-2.00;99.90;;;;;;6720189;88;20288;-77
2023/02/28 05:43:32;;;;;;;1999.90;999.90;;;-1.90;99.90;;;;;;6722202;88;20196;-79
2023/02/28 05:53:32;;;;;;;1999.90;999.90;;;-1.80;99.90;;;;;;6724847;88;20252;-78
2023/02/28 06:03:33;;;;;;;1999.90;999.90;;;-1.80;99.90;;;;;;6724027;88;20205;-78
2023/02/28 06:13:33;;;;;;;1999.90;999.90;;;-1.90;99.90;;;;;;6726789;88;20949;-77
2023/02/28 06:23:34;;;;;;;1999.90;999.90;;;-1.60;99.90;;;;;;6732378;88;20330;-79
2023/02/28 06:33:36;;;;;;;1999.90;999.90;;;-1.50;99.90;;;;;;6727894;88;20231;-77
2023/02/28 06:43:40;;;;;;;1999.90;999.90;;;-1.50;99.90;;;;;;6727113;88;20307;-77
2023/02/28 06:53:41;;;;;;;1999.90;999.90;;;-1.50;99.90;;;;;;6722559;88;20190;-77
2023/02/28 07:03:41;;;;;;;1999.90;999.90;;;-1.40;99.90;;;;;;6722963;88;20216;-77
2023/02/28 07:13:42;;;;;;;1999.90;999.90;;;-1.20;99.90;;;;;;6719711;88;20625;-77
2023/02/28 07:23:42;;;;;;;1999.90;999.90;;;-1.00;99.90;;;;;;6712499;88;20248;-77
2023/02/28 07:33:43;;;;;;;1999.90;999.90;;;-0.90;99.90;;;;;;6727715;88;20215;-77
2023/02/28 07:43:44;;;;;;;1999.90;999.90;;;-0.80;99.90;;;;;;6723809;88;21024;-77
2023/02/28 07:53:44;;;;;;;1999.90;999.90;;;-0.40;99.90;;;;;;6724011;88;20242;-77
2023/02/28 08:03:45;;;;;;;1999.90;999.90;;;0.40;99.90;;;;;;6725181;88;20211;-77
2023/02/28 08:13:46;;;;;;;1999.90;999.90;;;1.90;99.90;;;;;;6725149;88;20233;-77
2023/02/28 08:23:48;;;;;;;1999.90;999.90;;;4.10;99.90;;;;;;6723559;88;20764;-77
2023/02/28 08:33:51;;;;;;;1999.90;999.90;;;5.20;99.70;;;;;;6707263;77;20550;-77
2023/02/28 08:43:53;;;;;;;1999.90;999.90;;;5.10;99.90;;;;;;6660766;88;20205;-77
2023/02/28 08:53:57;;;;;;;1999.90;999.90;;;4.90;98.90;;;;;;6657206;89;20225;-76
2023/02/28 09:03:58;;;;;;;1999.90;999.90;;;5.10;98.30;;;;;;6662197;88;20212;-75
2023/02/28 09:14:00;;;;;;;1999.90;999.90;;;5.20;96.80;;;;;;6659186;88;20762;-76
2023/02/28 09:24:00;;;;;;;1999.90;999.90;;;5.90;95.80;;;;;;6655909;88;20222;-76
2023/02/28 09:34:01;;;;;;;1999.90;999.90;;;5.50;95.50;;;;;;6652163;88;20199;-76
2023/02/28 09:44:04;;;;;;;1999.90;999.90;;;5.70;95.30;;;;;;6661039;88;20277;-75
2023/02/28 09:54:05;;;;;;;1999.90;999.90;;;5.70;96.00;;;;;;6651330;89;20655;-76
2023/02/28 10:04:34;;;;;;;1999.90;999.90;;;6.20;93.90;;;;;;6654590;89;20253;-75
2023/02/28 10:14:37;;;;;;;1999.90;999.90;;;6.80;92.20;;;;;;6659420;89;20315;-75
2023/02/28 10:24:42;;;;;;;1999.90;999.90;;;6.80;91.50;;;;;;6649114;89;20605;-74
2023/02/28 10:34:43;;;;;;;1999.90;999.90;;;7.20;91.90;;;;;;6661149;88;20196;-77
2023/02/28 10:44:44;;;;;;;1999.90;999.90;;;7.00;90.80;;;;;;6659320;89;20314;-76
2023/02/28 10:54:44;;;;;;;1999.90;999.90;;;6.90;91.00;;;;;;6655310;89;20196;-76
2023/02/28 11:04:45;;;;;;;1999.90;999.90;;;7.90;90.10;;;;;;6653386;89;20675;-76
2023/02/28 11:14:55;;;;;;;1999.90;999.90;;;7.80;89.00;;;;;;6654943;88;20207;-76
2023/02/28 11:25:00;;;;;;;1999.90;999.90;;;6.90;88.20;;;;;;6654627;89;20353;-77
2023/02/28 11:35:13;;;;;;;1999.90;999.90;;;9.00;87.90;;;;;;6649754;88;20295;-76
2023/02/28 11:45:42;;;;;;;1999.90;999.90;;;9.80;83.00;;;;;;6652938;89;20642;-76
2023/02/28 11:55:53;;;;;;;1999.90;999.90;;;8.80;82.30;;;;;;6653037;89;20175;-76
2023/02/28 12:06:13;;;;;;;1999.90;999.90;;;9.30;84.90;;;;;;6662465;88;20246;-77
2023/02/28 12:16:51;;;;;;;1999.90;999.90;;;10.70;83.40;;;;;;6652961;89;20203;-76
2023/02/28 12:26:54;;;;;;;1999.90;999.90;;;9.90;81.70;;;;;;6669606;89;20562;-77
2023/02/28 12:36:58;;;;;;;1999.90;999.90;;;8.60;82.30;;;;;;6680480;89;20297;-76
2023/02/28 12:47:13;;;;;;;1999.90;999.90;;;11.20;79.80;;;;;;6661457;89;20233;-76
2023/02/28 12:57:28;;;;;;;1999.90;999.90;;;10.90;78.80;;;;;;6655871;89;20199;-76
2023/02/28 13:08:13;;;;;;;1999.90;999.90;;;11.40;77.10;;;;;;6655636;89;20298;-76
2023/02/28 13:18:37;;;;;;;1999.90;999.90;;;11.10;80.10;;;;;;6659624;89;20220;-76
2023/02/28 13:28:55;;;;;;;1999.90;999.90;;;12.20;77.30;;;;;;6652333;88;20297;-76
2023/02/28 13:39:19;;;;;;;1999.90;999.90;;;13.50;75.90;;;;;;6655863;89;20187;-76
2023/02/28 13:49:23;;;;;;;1999.90;999.90;;;12.50;76.90;;;;;;6651952;89;20654;-76
2023/02/28 13:59:34;;;;;;;1999.90;999.90;;;12.40;75.00;;;;;;6653095;89;20274;-76
2023/02/28 14:09:40;;;;;;;1999.90;999.90;;;11.70;76.80;;;;;;6655602;89;20204;-76
2023/02/28 14:19:46;;;;;;;1999.90;999.90;;;10.90;76.10;;;;;;6653591;89;20199;-77
2023/02/28 14:30:15;;;;;;;1999.90;999.90;;;11.70;76.80;;;;;;6664057;88;20727;-75
2023/02/28 14:40:22;;;;;;;1999.90;999.90;;;10.80;77.40;;;;;;6652346;77;20208;-79
2023/02/28 14:50:34;;;;;;;1999.90;999.90;;;11.20;77.20;;;;;;6635737;89;20185;-78
2023/02/28 15:00:46;;;;;;;1999.90;999.90;;;10.60;78.80;;;;;;6637598;89;20682;-78
2023/02/28 15:10:56;;;;;;;1999.90;999.90;;;11.70;78.50;;;;;;6631820;89;20217;-77
2023/02/28 15:21:06;;;;;;;1999.90;999.90;;;10.40;78.80;;;;;;6624810;88;20178;-77
2023/02/28 15:31:21;;;;;;;1999.90;999.90;;;9.30;78.10;;;;;;6627727;89;20315;-78
2023/02/28 15:41:27;;;;;;;1999.90;999.90;;;9.60;79.60;;;;;;6629662;89;20178;-77
2023/02/28 15:51:37;;;;;;;1999.90;999.90;;;9.30;79.70;;;;;;6627092;89;20249;-78
2023/02/28 16:01:39;;;;;;;1999.90;999.90;;;8.50;80.80;;;;;;6624639;89;20225;-78
2023/02/28 16:11:49;;;;;;;1999.90;999.90;;;8.90;80.40;;;;;;6629377;89;20711;-77
2023/02/28 16:21:50;;;;;;;1999.90;999.90;;;8.30;83.20;;;;;;6632500;89;20204;-78
2023/02/28 16:31:51;;;;;;;1999.90;999.90;;;8.40;83.10;;;;;;6635113;89;20181;-77
2023/02/28 16:41:52;;;;;;;1999.90;999.90;;;8.30;82.00;;;;;;6636001;89;20669;-78
2023/02/28 16:51:53;;;;;;;1999.90;999.90;;;7.90;83.90;;;;;;6631371;89;20636;-79
2023/02/28 17:01:57;;;;;;;1999.90;999.90;;;7.50;84.00;;;;;;6637057;89;20191;-78
2023/02/28 17:11:59;;;;;;;1999.90;999.90;;;7.10;85.50;;;;;;6631402;89;20210;-77
2023/02/28 17:22:00;;;;;;;1999.90;999.90;;;6.50;86.60;;;;;;6629063;89;20259;-77
2023/02/28 17:32:00;;;;;;;1999.90;999.90;;;6.20;88.70;;;;;;6634385;89;20199;-77
2023/02/28 17:42:01;;;;;;;1999.90;999.90;;;5.80;89.90;;;;;;6633401;89;20196;-77
2023/02/28 17:52:01;;;;;;;1999.90;999.90;;;5.50;90.30;;;;;;6634482;89;20276;-77
2023/02/28 18:02:03;;;;;;;1999.90;999.90;;;5.30;90.70;;;;;;6634887;89;20192;-77
2023/02/28 18:12:04;;;;;;;1999.90;999.90;;;5.00;91.70;;;;;;6633316;89;20508;-79
2023/02/28 18:22:07;;;;;;;1999.90;999.90;;;4.80;91.80;;;;;;6620302;89;20222;-77
2023/02/28 18:32:08;;;;;;;1999.90;999.90;;;4.40;93.10;;;;;;6631570;89;20217;-77
2023/02/28 18:42:10;;;;;;;1999.90;999.90;;;4.20;92.80;;;;;;6634172;89;20226;-78
2023/02/28 18:52:10;;;;;;;1999.90;999.90;;;3.90;94.10;;;;;;6634134;88;20193;-77
2023/02/28 19:02:11;;;;;;;1999.90;999.90;;;3.70;94.80;;;;;;6633531;89;20188;-78
2023/02/28 19:12:12;;;;;;;1999.90;999.90;;;3.50;94.10;;;;;;6632809;89;20324;-77
2023/02/28 19:22:12;;;;;;;1999.90;999.90;;;3.30;95.50;;;;;;6637863;89;20193;-77
2023/02/28 19:32:13;;;;;;;1999.90;999.90;;;3.00;96.10;;;;;;6638390;88;20184;-78
2023/02/28 19:42:15;;;;;;;1999.90;999.90;;;2.70;97.50;;;;;;6639032;88;20238;-78
2023/02/28 19:52:16;;;;;;;1999.90;999.90;;;2.60;96.90;;;;;;6638700;89;20192;-77
2023/02/28 20:02:19;;;;;;;1999.90;999.90;;;2.50;98.00;;;;;;6635251;88;20205;-78
2023/02/28 20:12:21;;;;;;;1999.90;999.90;;;2.20;99.20;;;;;;6626756;88;20193;-78
2023/02/28 20:22:22;;;;;;;1999.90;999.90;;;1.90;99.90;;;;;;6630956;89;20208;-77
2023/02/28 20:32:23;;;;;;;1999.90;999.90;;;1.70;99.90;;;;;;6620366;89;20649;-77
2023/02/28 20:42:23;;;;;;;1999.90;999.90;;;1.60;99.90;;;;;;6735567;77;20317;-78
2023/02/28 20:52:24;;;;;;;1999.90;999.90;;;1.40;99.90;;;;;;6755876;87;20214;-80
2023/02/28 21:02:25;;;;;;;1999.90;999.90;;;1.20;99.90;;;;;;6751496;88;20497;-78
2023/02/28 21:12:26;;;;;;;1999.90;999.90;;;1.40;99.90;;;;;;6760095;88;20543;-77
2023/02/28 21:22:26;;;;;;;1999.90;999.90;;;1.10;99.90;;;;;;6768149;87;20180;-77
2023/02/28 21:32:27;;;;;;;1999.90;999.90;;;0.80;99.90;;;;;;6772182;87;20324;-77
2023/02/28 21:42:27;;;;;;;1999.90;999.90;;;0.70;99.90;;;;;;6770445;87;20497;-78
2023/02/28 21:52:28;;;;;;;1999.90;999.90;;;0.50;99.90;;;;;;6756976;88;20658;-76
2023/02/28 22:02:28;;;;;;;1999.90;999.90;;;0.40;99.90;;;;;;6774092;87;20255;-77
2023/02/28 22:12:29;;;;;;;1999.90;999.90;;;0.30;99.90;;;;;;6760990;87;20625;-77
2023/02/28 22:22:30;;;;;;;1999.90;999.90;;;0.10;99.90;;;;;;6751959;88;20592;-76
2023/02/28 22:32:31;;;;;;;1999.90;999.90;;;0.10;99.90;;;;;;6754386;88;20188;-76
2023/02/28 22:42:33;;;;;;;1999.90;999.90;;;0.10;99.90;;;;;;6764980;87;20195;-76
2023/02/28 22:52:33;;;;;;;1999.90;999.90;;;-0.10;99.90;;;;;;6770279;87;20185;-76
2023/02/28 23:02:34;;;;;;;1999.90;999.90;;;0.00;99.90;;;;;;6764469;88;20225;-77
2023/02/28 23:12:35;;;;;;;1999.90;999.90;;;0.10;99.90;;;;;;6758131;88;20714;-76
2023/02/28 23:22:35;;;;;;;1999.90;999.90;;;-0.10;99.90;;;;;;6760463;88;20325;-77
2023/02/28 23:32:37;;;;;;;1999.90;999.90;;;-0.30;99.90;;;;;;6761712;88;20231;-77
2023/02/28 23:42:38;;;;;;;1999.90;999.90;;;-0.40;99.90;;;;;;6766910;88;20607;-79
2023/02/28 23:52:39;;;;;;;1999.90;999.90;;;-0.50;99.90;;;;;;6762739;88;20306;-75
